Time;durP1;ratioP1;P1;durP2;ratioP2;P2;SDS_P1;SDS_P2;PMS_P1;PMS_P2;Temp;Humidity;BMP_temperature;BMP_pressure;BME280_temperature;BME280_humidity;BME280_pressure;Samples;Min_cycle;Max_cycle;Signal;HPM_P1;HPM_P2
2022/04/05 00:01:37;;;;;;;13.95;9.13;;;;;;;3.38;54.11;100711.08;1833095;78;21313;-75
2022/04/05 00:04:05;;;;;;;9.30;8.28;;;;;;;3.34;54.20;100707.74;1833192;77;21407;-76
2022/04/05 00:06:31;;;;;;;11.30;7.72;;;;;;;3.29;54.33;100708.30;1833453;77;20907;-76
2022/04/05 00:08:58;;;;;;;10.50;7.78;;;;;;;3.26;54.51;100711.83;1833196;77;21317;-76
2022/04/05 00:11:26;;;;;;;12.65;8.40;;;;;;;3.21;54.79;100708.53;1833178;77;20934;-76
2022/04/05 00:13:53;;;;;;;12.58;8.75;;;;;;;3.18;54.94;100704.74;1833019;77;20876;-76
2022/04/05 00:16:20;;;;;;;12.70;9.25;;;;;;;3.16;55.25;100703.05;1833155;78;20895;-75
2022/04/05 00:18:47;;;;;;;10.90;7.92;;;;;;;3.12;55.38;100699.72;1832983;78;20963;-75
2022/04/05 00:21:14;;;;;;;11.68;8.45;;;;;;;3.07;55.57;100701.15;1833488;77;20867;-73
2022/04/05 00:23:41;;;;;;;8.40;7.30;;;;;;;3.03;55.76;100695.64;1833453;77;21349;-76
2022/04/05 00:26:09;;;;;;;10.18;7.28;;;;;;;2.99;56.01;100698.36;1833032;77;20963;-75
2022/04/05 00:28:35;;;;;;;11.20;7.05;;;;;;;2.96;56.22;100701.02;1833405;77;21346;-76
2022/04/05 00:31:02;;;;;;;10.85;7.60;;;;;;;2.93;56.39;100699.81;1833010;78;20911;-76
2022/04/05 00:33:29;;;;;;;9.45;6.92;;;;;;;2.90;56.57;100695.13;1833029;77;20923;-75
2022/04/05 00:35:56;;;;;;;11.50;7.70;;;;;;;2.87;56.67;100688.73;1832995;77;21136;-76
2022/04/05 00:38:23;;;;;;;8.15;7.28;;;;;;;2.84;56.81;100695.73;1832949;78;20907;-75
2022/04/05 00:40:50;;;;;;;10.93;8.18;;;;;;;2.79;56.94;100690.68;1833130;77;20899;-74
2022/04/05 00:43:16;;;;;;;12.90;8.20;;;;;;;2.74;57.17;100693.84;1833258;76;21502;-76
2022/04/05 00:45:44;;;;;;;9.83;7.28;;;;;;;2.70;57.41;100695.66;1833045;77;20931;-74
2022/04/05 00:48:11;;;;;;;10.80;8.75;;;;;;;2.68;57.50;100694.84;1833235;77;21226;-77
2022/04/05 00:50:38;;;;;;;13.22;8.40;;;;;;;2.64;57.59;100686.74;1832899;77;21447;-75
2022/04/05 00:53:07;;;;;;;8.63;7.72;;;;;;;2.63;57.62;100685.06;1833027;77;20860;-75
2022/04/05 00:55:36;;;;;;;10.03;7.25;;;;;;;2.60;57.75;100690.33;1833085;77;21369;-75
2022/04/05 00:58:03;;;;;;;9.55;7.53;;;;;;;2.56;57.95;100686.56;1833116;77;21065;-76
2022/04/05 01:00:32;;;;;;;9.45;7.28;;;;;;;2.52;58.11;100688.83;1833114;77;21129;-75
2022/04/05 01:03:00;;;;;;;12.10;8.45;;;;;;;2.51;58.25;100688.41;1832914;77;20919;-76
2022/04/05 01:05:28;;;;;;;11.18;7.53;;;;;;;2.47;58.39;100681.18;1833296;78;20884;-76
2022/04/05 01:07:59;;;;;;;8.78;7.55;;;;;;;2.45;58.49;100677.33;1832938;78;20927;-76
2022/04/05 01:10:30;;;;;;;9.15;7.20;;;;;;;2.45;58.59;100685.09;1833365;77;20951;-75
2022/04/05 01:12:57;;;;;;;12.30;8.13;;;;;;;2.44;58.62;100676.91;1832953;77;21825;-75
2022/04/05 01:15:24;;;;;;;11.75;8.18;;;;;;;2.43;58.75;100677.80;1832986;76;20910;-76
2022/04/05 01:17:52;;;;;;;10.18;8.38;;;;;;;2.43;58.89;100675.67;1833086;77;20903;-76
2022/04/05 01:20:20;;;;;;;13.25;8.05;;;;;;;2.42;58.90;100673.95;1833207;77;20888;-76
2022/04/05 01:22:51;;;;;;;9.70;8.23;;;;;;;2.39;58.97;100674.89;1833266;78;20888;-75
2022/04/05 01:25:18;;;;;;;9.23;7.72;;;;;;;2.37;59.12;100679.70;1835725;77;21218;-72
2022/04/05 01:27:46;;;;;;;12.43;8.25;;;;;;;2.33;59.23;100677.63;1836000;77;20911;-73
2022/04/05 01:30:13;;;;;;;9.08;7.40;;;;;;;2.28;59.39;100682.07;1833671;78;21333;-75
2022/04/05 01:32:40;;;;;;;10.93;7.22;;;;;;;2.25;59.60;100673.11;1833008;77;20959;-74
2022/04/05 01:35:08;;;;;;;16.25;9.45;;;;;;;2.22;59.73;100673.16;1832986;78;21517;-75
2022/04/05 01:37:35;;;;;;;10.90;7.70;;;;;;;2.19;59.82;100672.80;1833050;78;21127;-75
2022/04/05 01:40:02;;;;;;;9.53;7.22;;;;;;;2.17;59.93;100671.14;1833033;77;21440;-76
2022/04/05 01:42:30;;;;;;;12.65;7.72;;;;;;;2.16;60.06;100666.42;1832969;77;20912;-74
2022/04/05 01:44:56;;;;;;;12.43;9.30;;;;;;;2.15;60.15;100667.73;1833045;77;20938;-74
2022/04/05 01:47:23;;;;;;;14.13;9.73;;;;;;;2.14;60.27;100664.77;1833719;77;20934;-74
2022/04/05 01:49:50;;;;;;;11.35;9.38;;;;;;;2.11;60.42;100662.23;1833337;77;21230;-75
2022/04/05 01:52:17;;;;;;;12.53;9.03;;;;;;;2.10;60.51;100659.25;1832975;78;20958;-75
2022/04/05 01:54:45;;;;;;;12.20;8.83;;;;;;;2.10;60.64;100650.20;1832990;78;20891;-75
2022/04/05 01:57:13;;;;;;;12.05;8.20;;;;;;;2.10;60.68;100651.48;1833502;77;20926;-74
2022/04/05 01:59:40;;;;;;;12.33;8.65;;;;;;;2.07;60.76;100653.27;1833011;77;20915;-75
2022/04/05 02:02:09;;;;;;;15.40;9.98;;;;;;;2.06;60.67;100654.58;1832912;77;22147;-74
2022/04/05 02:04:36;;;;;;;11.75;8.43;;;;;;;2.03;60.78;100654.22;1833191;78;20876;-75
2022/04/05 02:07:15;;;;;;;12.55;8.75;;;;;;;2.01;60.84;100657.28;1832922;78;20840;-75
2022/04/05 02:09:45;;;;;;;9.70;8.30;;;;;;;1.98;60.97;100659.08;1833079;77;20942;-75
2022/04/05 02:12:12;;;;;;;13.75;8.73;;;;;;;1.94;61.08;100658.32;1832971;78;20902;-76
2022/04/05 02:14:40;;;;;;;12.47;8.73;;;;;;;1.89;61.20;100653.72;1820318;78;21206;-75
2022/04/05 02:17:09;;;;;;;11.90;8.75;;;;;;;1.85;61.37;100653.38;1796707;78;20939;-75
2022/04/05 02:19:38;;;;;;;12.25;9.45;;;;;;;1.82;61.54;100654.72;1796552;80;20961;-75
2022/04/05 02:22:08;;;;;;;11.90;8.43;;;;;;;1.78;61.68;100656.97;1796633;79;20961;-75
2022/04/05 02:24:36;;;;;;;11.78;8.63;;;;;;;1.74;61.84;100653.62;1797066;79;20867;-76
2022/04/05 02:27:04;;;;;;;11.15;8.45;;;;;;;1.71;62.02;100652.83;1796556;80;21779;-76
2022/04/05 02:29:34;;;;;;;12.15;8.45;;;;;;;1.66;62.18;100656.81;1796619;79;20843;-75
2022/04/05 02:32:03;;;;;;;11.35;8.08;;;;;;;1.62;62.35;100657.34;1796795;79;21359;-74
2022/04/05 02:34:31;;;;;;;10.13;7.90;;;;;;;1.60;62.56;100658.23;1796514;79;21479;-75
2022/04/05 02:36:59;;;;;;;17.35;8.38;;;;;;;1.58;62.65;100653.53;1791021;79;20920;-74
2022/04/05 02:39:27;;;;;;;10.58;8.20;;;;;;;1.55;62.83;100653.17;1790427;80;21134;-75
2022/04/05 02:41:56;;;;;;;9.78;7.50;;;;;;;1.55;62.95;100658.34;1790225;80;20883;-75
2022/04/05 02:44:23;;;;;;;12.18;9.40;;;;;;;1.52;63.08;100655.84;1790583;80;20867;-75
2022/04/05 02:46:52;;;;;;;15.28;9.03;;;;;;;1.51;63.21;100659.28;1790128;80;21400;-74
2022/04/05 02:49:19;;;;;;;10.20;7.47;;;;;;;1.48;63.35;100656.78;1790529;80;20923;-75
2022/04/05 02:51:47;;;;;;;8.03;7.28;;;;;;;1.45;63.50;100655.56;1790359;80;21242;-76
2022/04/05 02:54:16;;;;;;;9.30;8.05;;;;;;;1.43;63.68;100662.05;1789820;78;21481;-75
2022/04/05 02:56:43;;;;;;;10.48;8.85;;;;;;;1.40;63.91;100654.80;1790528;78;20887;-76
2022/04/05 02:59:11;;;;;;;9.33;8.43;;;;;;;1.36;64.07;100661.78;1790637;80;20926;-75
2022/04/05 03:01:37;;;;;;;11.95;8.30;;;;;;;1.35;64.23;100648.88;1790541;78;21018;-74
2022/04/05 03:04:06;;;;;;;14.38;8.35;;;;;;;1.32;64.37;100655.42;1789799;79;21331;-75
2022/04/05 03:06:33;;;;;;;10.90;8.43;;;;;;;1.31;64.48;100659.75;1790495;80;20860;-74
2022/04/05 03:09:00;;;;;;;12.03;9.43;;;;;;;1.29;64.64;100659.34;1790908;79;21060;-75
2022/04/05 03:11:29;;;;;;;16.48;12.25;;;;;;;1.26;64.83;100665.88;1790676;80;20958;-75
2022/04/05 03:13:57;;;;;;;11.20;9.20;;;;;;;1.23;65.01;100663.77;1781879;80;21026;-73
2022/04/05 03:16:25;;;;;;;14.87;10.70;;;;;;;1.21;65.09;100662.94;1780654;80;20889;-75
2022/04/05 03:18:54;;;;;;;12.60;9.20;;;;;;;1.19;65.17;100671.61;1779832;80;20936;-77
2022/04/05 03:21:21;;;;;;;14.18;9.30;;;;;;;1.18;65.30;100672.51;1779586;79;20975;-75
2022/04/05 03:23:48;;;;;;;9.63;8.63;;;;;;;1.17;65.38;100663.88;1779682;80;20876;-75
2022/04/05 03:26:16;;;;;;;12.65;9.68;;;;;;;1.18;65.41;100672.51;1779468;80;20987;-75
2022/04/05 03:28:45;;;;;;;11.18;9.33;;;;;;;1.18;65.46;100669.48;1779375;80;21268;-75
2022/04/05 03:31:12;;;;;;;11.20;9.68;;;;;;;1.17;65.50;100660.01;1780059;80;20926;-76
2022/04/05 03:33:40;;;;;;;17.30;12.75;;;;;;;1.16;65.57;100664.78;1749319;80;20900;-74
2022/04/05 03:36:08;;;;;;;15.50;9.68;;;;;;;1.16;65.60;100666.52;1779317;80;21549;-75
2022/04/05 03:38:35;;;;;;;12.65;9.10;;;;;;;1.16;65.65;100672.53;1779894;80;20856;-74
2022/04/05 03:41:02;;;;;;;11.68;9.98;;;;;;;1.16;65.63;100667.36;1779410;80;21259;-75
2022/04/05 03:43:29;;;;;;;9.93;8.65;;;;;;;1.18;65.64;100664.77;1779452;80;20939;-76
2022/04/05 03:45:57;;;;;;;10.48;9.45;;;;;;;1.22;65.65;100659.91;1779835;80;20896;-74
2022/04/05 03:48:26;;;;;;;14.23;11.68;;;;;;;1.28;65.57;100660.24;1779509;80;20949;-74
2022/04/05 03:50:53;;;;;;;13.38;10.35;;;;;;;1.34;65.45;100662.70;1779448;79;20888;-75
2022/04/05 03:53:21;;;;;;;19.50;12.68;;;;;;;1.41;65.34;100657.36;1779389;80;21136;-75
2022/04/05 03:55:48;;;;;;;10.10;8.75;;;;;;;1.50;65.15;100653.72;1779503;78;21046;-76
2022/04/05 03:58:16;;;;;;;10.35;9.05;;;;;;;1.59;64.97;100664.30;1779436;80;21629;-76
2022/04/05 04:00:44;;;;;;;11.03;8.50;;;;;;;1.69;64.68;100662.34;1779484;80;21443;-76
2022/04/05 04:03:16;;;;;;;14.10;10.18;;;;;;;1.78;64.42;100655.67;1779387;80;20900;-75
2022/04/05 04:05:45;;;;;;;12.93;10.05;;;;;;;1.93;64.25;100656.61;1779498;80;21099;-76
2022/04/05 04:08:11;;;;;;;11.15;8.78;;;;;;;2.10;63.71;100651.48;1779571;80;21465;-76
2022/04/05 04:10:40;;;;;;;12.65;9.70;;;;;;;2.22;63.21;100649.45;1749308;80;21409;-75
2022/04/05 04:13:08;;;;;;;10.45;8.35;;;;;;;2.36;62.78;100650.84;1779460;80;20987;-76
2022/04/05 04:15:37;;;;;;;11.12;9.45;;;;;;;2.50;62.48;100657.80;1779588;79;21015;-75
2022/04/05 04:18:04;;;;;;;13.83;10.85;;;;;;;2.64;62.15;100656.12;1779649;80;21234;-75
2022/04/05 04:20:32;;;;;;;11.93;9.70;;;;;;;2.78;61.80;100666.11;1779353;79;20896;-74
2022/04/05 04:23:00;;;;;;;13.90;10.23;;;;;;;2.93;61.44;100664.40;1779786;80;20892;-74
2022/04/05 04:25:27;;;;;;;15.80;10.08;;;;;;;3.06;60.75;100661.02;1779517;80;20932;-75
2022/04/05 04:27:55;;;;;;;13.05;9.93;;;;;;;3.16;60.61;100666.36;1779488;80;21359;-74
2022/04/05 04:30:22;;;;;;;13.00;9.95;;;;;;;3.29;60.23;100665.11;1779815;80;21161;-75
2022/04/05 04:32:50;;;;;;;12.50;9.35;;;;;;;3.41;59.56;100672.13;1779319;79;21437;-75
2022/04/05 04:35:17;;;;;;;17.32;11.63;;;;;;;3.41;59.23;100671.67;1779419;80;21022;-75
2022/04/05 04:37:44;;;;;;;13.75;10.63;;;;;;;3.44;59.12;100678.50;1779335;80;21390;-75
2022/04/05 04:40:12;;;;;;;9.20;7.95;;;;;;;3.49;59.13;100671.00;1779617;80;20971;-74
2022/04/05 04:42:41;;;;;;;11.83;9.20;;;;;;;3.58;58.87;100669.88;1779620;80;22452;-74
2022/04/05 04:45:09;;;;;;;8.93;7.72;;;;;;;3.69;58.77;100674.29;1749074;79;20995;-75
2022/04/05 04:47:36;;;;;;;13.13;11.60;;;;;;;3.85;58.47;100673.36;1780134;80;20976;-71
2022/04/05 04:50:05;;;;;;;9.18;7.60;;;;;;;4.17;57.75;100677.13;1782271;80;20915;-72
2022/04/05 04:52:32;;;;;;;10.18;7.90;;;;;;;4.60;56.58;100680.87;1781815;80;20904;-74
2022/04/05 04:54:58;;;;;;;9.28;7.95;;;;;;;5.16;55.83;100682.77;1779838;80;21068;-75
2022/04/05 04:57:25;;;;;;;9.03;7.45;;;;;;;5.72;53.61;100681.53;1779291;80;21407;-76
2022/04/05 04:59:53;;;;;;;7.65;6.83;;;;;;;6.29;51.76;100679.74;1779752;80;20940;-76
2022/04/05 05:02:22;;;;;;;7.67;6.87;;;;;;;6.84;50.37;100676.94;1779428;80;20916;-76
2022/04/05 05:04:52;;;;;;;8.60;6.95;;;;;;;7.37;48.94;100675.94;1779528;79;20987;-74
2022/04/05 05:07:20;;;;;;;10.75;7.92;;;;;;;7.67;47.58;100674.52;1779356;80;21033;-76
2022/04/05 05:09:47;;;;;;;9.80;7.10;;;;;;;7.70;46.76;100678.74;1779320;80;20881;-77
2022/04/05 05:12:14;;;;;;;8.30;6.97;;;;;;;7.57;46.60;100684.98;1779527;80;20943;-76
2022/04/05 05:14:41;;;;;;;9.80;7.47;;;;;;;7.38;46.79;100678.48;1779087;80;21050;-75
2022/04/05 05:17:09;;;;;;;10.55;8.60;;;;;;;7.29;47.16;100674.96;1779395;80;20922;-75
2022/04/05 05:19:37;;;;;;;11.83;9.15;;;;;;;7.36;46.96;100674.22;1779588;79;21492;-75
2022/04/05 05:22:05;;;;;;;8.80;7.47;;;;;;;7.46;46.27;100669.83;1779520;80;20881;-75
2022/04/05 05:24:34;;;;;;;7.97;6.83;;;;;;;7.69;46.13;100666.59;1779447;80;20920;-76
2022/04/05 05:27:01;;;;;;;7.67;6.58;;;;;;;7.97;45.16;100666.12;1779449;80;20991;-77
2022/04/05 05:29:29;;;;;;;7.80;6.87;;;;;;;8.38;44.59;100668.48;1779482;80;20947;-76
2022/04/05 05:31:55;;;;;;;9.85;6.45;;;;;;;8.84;43.13;100665.31;1779336;80;21569;-75
2022/04/05 05:34:23;;;;;;;8.93;7.95;;;;;;;9.18;41.84;100664.83;1779332;80;20916;-76
2022/04/05 05:36:50;;;;;;;8.15;6.55;;;;;;;9.49;40.99;100657.47;1779396;79;20964;-76
2022/04/05 05:39:17;;;;;;;6.80;6.10;;;;;;;9.66;40.57;100665.72;1779321;79;21358;-75
2022/04/05 05:41:47;;;;;;;8.95;6.50;;;;;;;9.51;40.33;100658.23;1779329;80;20899;-75
2022/04/05 05:44:13;;;;;;;8.43;7.35;;;;;;;9.13;40.53;100667.70;1779735;79;21189;-75
2022/04/05 05:46:40;;;;;;;8.15;7.35;;;;;;;8.61;41.21;100655.58;1779426;80;20916;-76
2022/04/05 05:49:06;;;;;;;9.05;7.62;;;;;;;8.16;42.12;100659.56;1779276;80;20920;-75
2022/04/05 05:51:33;;;;;;;12.25;10.55;;;;;;;7.74;43.10;100656.80;1779248;80;20944;-75
2022/04/05 05:54:00;;;;;;;11.12;9.53;;;;;;;7.50;43.95;100656.66;1779541;80;20912;-76
2022/04/05 05:56:27;;;;;;;8.58;7.67;;;;;;;7.38;44.64;100648.48;1779237;80;21893;-76
2022/04/05 05:58:53;;;;;;;7.47;6.78;;;;;;;7.31;44.92;100654.03;1779536;80;20983;-76
2022/04/05 06:01:20;;;;;;;9.55;6.90;;;;;;;7.19;44.79;100651.53;1779395;80;20928;-76
2022/04/05 06:03:48;;;;;;;8.58;7.25;;;;;;;7.16;45.06;100658.17;1779279;80;20987;-76
2022/04/05 06:06:15;;;;;;;12.37;9.38;;;;;;;7.21;45.28;100661.44;1779465;80;21432;-76
2022/04/05 06:08:42;;;;;;;9.30;7.70;;;;;;;7.28;45.55;100652.88;1779371;80;21424;-76
2022/04/05 06:11:10;;;;;;;10.15;6.87;;;;;;;7.45;45.34;100649.88;1779305;80;21417;-76
2022/04/05 06:13:37;;;;;;;8.53;7.37;;;;;;;7.58;45.18;100643.64;1779942;80;20869;-76
2022/04/05 06:16:08;;;;;;;10.72;8.70;;;;;;;7.62;45.25;100653.45;1779922;80;20893;-77
2022/04/05 06:18:35;;;;;;;11.28;9.30;;;;;;;7.61;45.61;100643.48;1779280;79;20888;-76
2022/04/05 06:21:02;;;;;;;11.88;7.92;;;;;;;7.70;45.87;100638.28;1779677;80;21219;-77
2022/04/05 06:23:28;;;;;;;9.83;8.50;;;;;;;7.72;45.37;100642.14;1779202;80;20924;-76
2022/04/05 06:25:56;;;;;;;9.83;7.60;;;;;;;7.59;45.52;100634.88;1779288;79;20932;-77
2022/04/05 06:28:22;;;;;;;9.48;8.50;;;;;;;7.42;45.81;100640.03;1779195;80;20880;-76
2022/04/05 06:30:49;;;;;;;10.00;8.18;;;;;;;7.18;46.28;100637.66;1779360;80;21500;-75
2022/04/05 06:33:18;;;;;;;11.78;8.43;;;;;;;6.99;46.70;100639.40;1779252;80;21865;-76
2022/04/05 06:35:49;;;;;;;12.50;8.80;;;;;;;6.77;47.00;100638.20;1779592;80;20924;-76
2022/04/05 06:38:17;;;;;;;13.32;7.80;;;;;;;6.55;47.54;100638.28;1793991;78;20950;-76
2022/04/05 06:40:44;;;;;;;13.78;10.03;;;;;;;6.43;48.34;100633.98;1796198;78;21499;-76
2022/04/05 06:43:12;;;;;;;21.42;14.87;;;;;;;6.52;48.69;100628.84;1796216;80;20890;-74
2022/04/05 06:45:41;;;;;;;11.08;8.75;;;;;;;6.74;48.21;100624.84;1796266;80;20895;-75
2022/04/05 06:48:09;;;;;;;10.80;8.68;;;;;;;6.90;47.88;100625.47;1796286;78;20859;-75
2022/04/05 06:51:16;;;;;;;9.60;8.63;;;;;;;6.93;47.52;100622.25;1798589;79;22656;-76
2022/04/05 06:53:43;;;;;;;12.28;9.15;;;;;;;6.81;47.75;100617.14;1758384;81;20892;-76
2022/04/05 06:56:10;;;;;;;9.33;8.20;;;;;;;6.78;47.58;100626.84;1758373;80;21208;-77
2022/04/05 06:58:37;;;;;;;10.10;7.47;;;;;;;6.70;47.77;100621.98;1758205;81;20892;-77
2022/04/05 07:01:03;;;;;;;13.38;10.15;;;;;;;6.67;48.00;100623.86;1758372;80;21377;-75
2022/04/05 07:03:30;;;;;;;16.93;10.95;;;;;;;6.66;48.01;100625.62;1758184;80;20948;-78
2022/04/05 07:05:58;;;;;;;16.00;13.45;;;;;;;6.67;48.19;100613.44;1758333;81;21428;-77
2022/04/05 07:08:25;;;;;;;25.60;12.33;;;;;;;6.68;47.95;100612.08;1758649;80;21161;-75
2022/04/05 07:10:53;;;;;;;14.93;10.38;;;;;;;6.71;47.83;100615.00;1758128;81;20885;-76
2022/04/05 07:13:22;;;;;;;14.13;9.08;;;;;;;6.72;47.38;100618.02;1758690;81;20963;-76
2022/04/05 07:15:50;;;;;;;11.43;8.63;;;;;;;6.75;47.63;100613.95;1758199;81;20935;-76
2022/04/05 07:18:18;;;;;;;15.13;8.83;;;;;;;6.84;47.83;100613.55;1758351;81;20987;-76
2022/04/05 07:20:46;;;;;;;11.95;8.18;;;;;;;7.12;47.53;100606.64;1758742;81;21242;-74
2022/04/05 07:23:15;;;;;;;11.20;8.25;;;;;;;7.41;47.46;100611.80;1758386;80;20841;-76
2022/04/05 07:25:41;;;;;;;14.58;8.78;;;;;;;7.83;46.94;100606.75;1758374;80;20979;-75
2022/04/05 07:28:08;;;;;;;16.25;9.88;;;;;;;8.23;46.95;100599.55;1758168;81;20995;-75
2022/04/05 07:30:35;;;;;;;11.95;8.93;;;;;;;8.83;46.43;100600.41;1758590;81;21338;-75
2022/04/05 07:33:02;;;;;;;10.23;9.03;;;;;;;9.61;44.90;100595.76;1758222;81;21246;-75
2022/04/05 07:35:28;;;;;;;13.85;8.43;;;;;;;10.29;44.14;100592.71;1758578;81;21492;-76
2022/04/05 07:37:55;;;;;;;10.55;7.47;;;;;;;10.94;43.30;100583.12;1758539;80;20927;-74
2022/04/05 07:40:22;;;;;;;12.40;6.53;;;;;;;11.51;42.83;100588.70;1758250;81;20936;-76
2022/04/05 07:42:50;;;;;;;7.62;5.95;;;;;;;11.89;43.10;100578.81;1758384;81;21412;-74
2022/04/05 07:45:16;;;;;;;10.05;6.12;;;;;;;11.95;44.19;100570.53;1758394;81;21341;-74
2022/04/05 07:47:43;;;;;;;14.05;7.33;;;;;;;11.95;44.19;100570.53;1758316;80;21435;-75
2022/04/05 07:50:10;;;;;;;10.18;6.58;;;;;;;11.67;44.93;100565.77;1752607;81;20944;-75
2022/04/05 07:52:37;;;;;;;9.28;7.05;;;;;;;11.30;45.90;100569.92;1745233;82;20944;-75
2022/04/05 07:55:07;;;;;;;8.63;6.25;;;;;;;10.85;46.84;100554.80;1745174;82;20897;-74
2022/04/05 07:57:36;;;;;;;10.65;6.08;;;;;;;10.56;47.77;100556.99;1745487;81;22020;-75
2022/04/05 08:00:04;;;;;;;5.72;5.22;;;;;;;10.39;48.59;100571.58;1745188;82;20964;-75
2022/04/05 08:02:33;;;;;;;9.18;5.83;;;;;;;10.22;48.61;100552.89;1708569;82;21445;-74
2022/04/05 08:05:00;;;;;;;10.72;6.08;;;;;;;10.26;48.87;100555.70;1709111;84;20955;-76
2022/04/05 08:07:27;;;;;;;6.60;5.35;;;;;;;10.56;49.17;100540.39;1709382;84;20848;-75
2022/04/05 08:09:54;;;;;;;7.55;5.62;;;;;;;10.86;48.79;100533.73;1710344;84;21133;-72
2022/04/05 08:12:23;;;;;;;9.13;5.62;;;;;;;11.12;47.98;100533.41;1709482;84;20997;-77
2022/04/05 08:14:49;;;;;;;8.58;5.35;;;;;;;11.26;47.75;100520.70;1709163;82;20932;-75
2022/04/05 08:17:17;;;;;;;5.97;4.85;;;;;;;11.27;47.44;100525.03;1708931;84;20928;-75
2022/04/05 08:19:44;;;;;;;5.80;5.20;;;;;;;11.08;47.37;100538.47;1709314;84;20904;-75
2022/04/05 08:22:10;;;;;;;6.95;4.67;;;;;;;10.78;47.59;100518.92;1709123;84;21269;-74
2022/04/05 08:24:37;;;;;;;4.70;4.33;;;;;;;10.54;47.99;100521.31;1708951;84;20869;-75
2022/04/05 08:27:04;;;;;;;5.67;4.75;;;;;;;10.27;48.78;100524.65;1709128;84;21338;-75
2022/04/05 08:29:31;;;;;;;8.35;5.47;;;;;;;9.98;48.95;100516.36;1708755;84;21493;-75
2022/04/05 08:31:59;;;;;;;9.80;7.58;;;;;;;9.66;49.51;100523.02;1709033;84;20939;-80
2022/04/05 08:34:26;;;;;;;6.45;5.83;;;;;;;9.39;50.32;100522.83;1709031;84;21901;-76
2022/04/05 08:36:54;;;;;;;6.45;4.85;;;;;;;9.21;50.88;100510.31;1709101;82;20939;-75
2022/04/05 08:39:20;;;;;;;8.18;5.30;;;;;;;9.07;51.54;100528.94;1709171;84;20865;-75
2022/04/05 08:41:47;;;;;;;6.60;5.03;;;;;;;8.98;51.96;100506.34;1709136;82;20900;-74
2022/04/05 08:44:16;;;;;;;6.47;5.90;;;;;;;8.89;51.86;100500.72;1709072;82;20876;-76
2022/04/05 08:46:44;;;;;;;7.80;5.97;;;;;;;8.81;52.19;100499.44;1734832;82;21263;-75
2022/04/05 08:49:11;;;;;;;4.75;4.17;;;;;;;8.89;52.54;100502.02;1744677;81;20897;-74
2022/04/05 08:51:39;;;;;;;6.20;4.95;;;;;;;8.91;52.47;100494.94;1756302;81;21567;-75
2022/04/05 08:54:05;;;;;;;6.25;4.92;;;;;;;8.95;52.39;100483.82;1758076;81;20935;-77
2022/04/05 08:56:34;;;;;;;6.10;5.30;;;;;;;8.97;52.38;100492.43;1758413;81;20837;-77
2022/04/05 08:59:01;;;;;;;7.08;5.25;;;;;;;8.98;52.61;100482.37;1758347;80;21437;-76
2022/04/05 09:01:29;;;;;;;10.80;5.37;;;;;;;8.96;52.61;100497.30;1722027;83;20880;-76
2022/04/05 09:03:59;;;;;;;6.03;5.40;;;;;;;8.91;52.59;100467.92;1721895;82;21412;-76
2022/04/05 09:06:36;;;;;;;7.03;5.50;;;;;;;8.89;52.96;100470.64;1722045;83;21578;-78
2022/04/05 09:09:11;;;;;;;4.83;4.42;;;;;;;8.95;52.67;100465.98;1721953;83;20934;-76
2022/04/05 09:11:52;;;;;;;6.58;5.95;;;;;;;9.00;52.24;100456.10;1721924;82;21061;-74
2022/04/05 09:14:25;;;;;;;5.15;4.65;;;;;;;9.01;51.77;100455.19;1721751;83;21440;-75
2022/04/05 09:17:07;;;;;;;9.65;6.53;;;;;;;9.00;51.88;100455.62;1721857;83;21404;-76
2022/04/05 09:19:42;;;;;;;8.68;5.72;;;;;;;9.04;52.26;100449.30;1722012;83;20931;-75
2022/04/05 09:22:11;;;;;;;6.90;5.10;;;;;;;9.09;52.44;100454.27;1721937;83;21128;-75
2022/04/05 09:24:45;;;;;;;7.90;5.05;;;;;;;9.13;52.42;100442.23;1722002;83;21547;-74
2022/04/05 09:27:13;;;;;;;6.00;4.45;;;;;;;9.30;51.96;100439.98;1721852;82;20872;-76
2022/04/05 09:29:43;;;;;;;5.67;5.03;;;;;;;9.73;51.89;100440.55;1721884;83;21044;-77
2022/04/05 09:32:11;;;;;;;6.80;4.42;;;;;;;10.01;50.07;100431.05;1721823;82;20998;-78
2022/04/05 09:34:50;;;;;;;5.20;4.50;;;;;;;10.19;48.96;100429.92;1721836;82;20971;-77
2022/04/05 09:37:28;;;;;;;5.40;4.90;;;;;;;10.20;48.90;100434.20;1721915;83;21160;-76
2022/04/05 09:40:20;;;;;;;9.08;5.28;;;;;;;10.09;48.76;100427.03;1722450;83;20825;-76
2022/04/05 09:43:13;;;;;;;9.58;4.67;;;;;;;9.94;49.08;100431.89;1721743;83;20935;-76
2022/04/05 09:45:57;;;;;;;11.20;4.65;;;;;;;9.86;49.46;100419.71;1719997;83;21014;-77
2022/04/05 09:48:26;;;;;;;6.67;5.08;;;;;;;9.90;49.77;100422.52;1722416;83;21084;-76
2022/04/05 09:51:16;;;;;;;6.03;4.87;;;;;;;10.13;49.92;100407.54;1719846;83;21893;-76
2022/04/05 09:53:50;;;;;;;7.00;6.10;;;;;;;10.26;49.71;100415.97;1716667;82;21393;-76
2022/04/05 09:56:30;;;;;;;7.87;5.15;;;;;;;10.29;49.33;100392.20;1716496;83;21079;-77
2022/04/05 09:59:18;;;;;;;5.05;4.50;;;;;;;10.21;49.00;100389.22;1716238;83;20955;-74
2022/04/05 10:01:47;;;;;;;5.05;4.55;;;;;;;10.02;49.04;100390.33;1716430;82;20903;-74
2022/04/05 10:04:16;;;;;;;7.12;5.67;;;;;;;9.83;50.55;100395.03;1716511;83;21087;-77
2022/04/05 10:06:47;;;;;;;6.25;5.37;;;;;;;9.59;52.23;100390.80;1716474;83;20856;-75
2022/04/05 10:09:16;;;;;;;5.78;5.10;;;;;;;9.36;52.98;100408.70;1716763;82;20907;-76
2022/04/05 10:11:45;;;;;;;6.08;5.47;;;;;;;9.19;53.53;100398.36;1716558;83;20955;-74
2022/04/05 10:14:20;;;;;;;7.97;7.17;;;;;;;9.09;54.29;100396.28;1716547;83;20857;-77
2022/04/05 10:16:49;;;;;;;7.87;5.85;;;;;;;9.11;54.54;100382.66;1716529;83;20888;-76
2022/04/05 10:19:16;;;;;;;9.15;6.25;;;;;;;9.24;54.45;100385.38;1716440;83;20931;-76
2022/04/05 10:21:44;;;;;;;6.42;5.28;;;;;;;9.39;54.39;100384.12;1716541;83;21330;-76
2022/04/05 10:24:12;;;;;;;8.45;5.25;;;;;;;9.63;54.11;100380.04;1716928;83;20972;-76
2022/04/05 10:26:41;;;;;;;5.17;4.67;;;;;;;9.78;53.60;100369.09;1716425;82;21532;-74
2022/04/05 10:29:11;;;;;;;5.50;5.00;;;;;;;9.89;53.49;100362.76;1716372;83;21232;-76
2022/04/05 10:32:16;;;;;;;6.05;4.65;;;;;;;9.94;52.87;100353.30;1716636;82;20928;-76
2022/04/05 10:35:08;;;;;;;8.50;5.72;;;;;;;9.93;52.26;100354.22;1716408;83;20852;-76
2022/04/05 10:37:37;;;;;;;5.35;4.85;;;;;;;9.81;53.50;100360.23;1716340;82;21069;-76
2022/04/05 10:40:10;;;;;;;7.70;5.95;;;;;;;9.67;53.60;100378.93;1716497;83;20924;-75
2022/04/05 10:42:46;;;;;;;5.78;5.28;;;;;;;9.52;54.09;100353.19;1716354;83;21204;-78
2022/04/05 10:45:23;;;;;;;5.37;4.87;;;;;;;9.43;54.13;100351.12;1716291;83;20891;-77
2022/04/05 10:48:20;;;;;;;7.03;4.67;;;;;;;9.47;54.14;100346.09;1716439;83;21428;-76
2022/04/05 10:51:05;;;;;;;4.87;4.20;;;;;;;9.80;53.99;100342.34;1716069;82;20959;-78
2022/04/05 10:54:17;;;;;;;5.53;4.55;;;;;;;10.39;52.50;100323.03;1716359;83;20943;-74
2022/04/05 10:56:14;;;;;;;4.70;4.17;;;;;;;10.94;50.69;100342.57;1713981;83;21163;-76
2022/04/05 10:58:49;;;;;;;5.60;3.83;;;;;;;11.48;49.03;100347.32;1716319;82;21428;-77
2022/04/05 11:01:23;;;;;;;5.50;4.20;;;;;;;11.80;46.95;100317.50;1698162;83;20927;-76
2022/04/05 11:04:20;;;;;;;4.15;3.75;;;;;;;11.95;46.63;100320.88;1713720;83;20979;-76
2022/04/05 11:07:06;;;;;;;4.45;4.05;;;;;;;12.00;46.52;100314.81;1716830;83;20880;-76
2022/04/05 11:09:37;;;;;;;6.12;4.95;;;;;;;11.97;46.65;100311.94;1716426;83;21615;-76
2022/04/05 11:12:12;;;;;;;4.42;3.60;;;;;;;11.84;47.28;100307.15;1716338;83;21326;-78
2022/04/05 11:14:42;;;;;;;4.12;3.80;;;;;;;11.72;46.58;100321.99;1734692;82;20992;-77
2022/04/05 11:17:10;;;;;;;4.78;4.37;;;;;;;11.43;45.87;100313.95;1752809;82;21410;-77
2022/04/05 11:19:41;;;;;;;5.60;5.00;;;;;;;11.14;47.91;100322.05;1733822;82;20885;-76
2022/04/05 11:22:26;;;;;;;4.75;4.35;;;;;;;10.92;48.70;100319.53;1752845;80;21856;-77
2022/04/05 11:25:07;;;;;;;4.15;3.70;;;;;;;10.76;47.38;100305.72;1753961;80;20889;-75
2022/04/05 11:27:47;;;;;;;4.67;3.98;;;;;;;10.60;47.76;100295.41;1753451;80;20873;-74
2022/04/05 11:30:29;;;;;;;4.85;3.92;;;;;;;10.50;48.83;100296.48;1752419;82;20972;-76
2022/04/05 11:33:33;;;;;;;8.78;5.83;;;;;;;10.46;49.67;100291.06;1752607;80;21386;-77
2022/04/05 11:36:13;;;;;;;7.22;4.03;;;;;;;10.50;49.30;100287.31;1752578;82;21246;-78
2022/04/05 11:38:45;;;;;;;5.35;4.08;;;;;;;10.62;48.45;100275.17;1752598;80;20932;-75